Time;durP1;ratioP1;P1;durP2;ratioP2;P2;SDS_P1;SDS_P2;PMS_P1;PMS_P2;Temp;Humidity;BMP_temperature;BMP_pressure;BME280_temperature;BME280_humidity;BME280_pressure;Samples;Min_cycle;Max_cycle;Signal;HPM_P1;HPM_P2
2022/04/29 00:00:00;;;;;;;28.42;11.93;;;7.90;90.40;;;;;;4951317;28;20428;-70
2022/04/29 00:02:27;;;;;;;25.23;10.63;;;7.80;90.40;;;;;;4954151;28;20042;-70
2022/04/29 00:04:52;;;;;;;27.40;11.77;;;7.80;89.90;;;;;;4956039;28;20036;-70
2022/04/29 00:07:18;;;;;;;26.02;11.32;;;7.80;89.30;;;;;;4955687;28;20041;-70
2022/04/29 00:09:44;;;;;;;28.48;12.63;;;7.70;89.30;;;;;;4961202;28;20550;-70
2022/04/29 00:12:10;;;;;;;25.20;10.40;;;7.70;89.80;;;;;;4957877;28;20107;-70
2022/04/29 00:14:36;;;;;;;24.02;10.52;;;7.60;90.20;;;;;;4941891;28;20411;-70
2022/04/29 00:17:03;;;;;;;25.30;11.60;;;7.60;90.50;;;;;;4954225;28;20163;-70
2022/04/29 00:19:28;;;;;;;24.20;11.13;;;7.60;90.90;;;;;;4951438;28;20035;-71
2022/04/29 00:21:55;;;;;;;24.02;8.52;;;7.60;91.10;;;;;;4957821;28;20019;-70
2022/04/29 00:24:21;;;;;;;23.60;10.80;;;7.60;91.20;;;;;;4960285;28;20046;-70
2022/04/29 00:26:47;;;;;;;18.60;9.45;;;7.60;90.80;;;;;;4961911;28;20042;-70
2022/04/29 00:29:12;;;;;;;15.45;7.07;;;7.50;90.80;;;;;;4945785;28;20035;-70
2022/04/29 00:31:39;;;;;;;15.25;6.78;;;7.50;90.90;;;;;;4960957;28;20033;-70
2022/04/29 00:34:05;;;;;;;12.52;6.95;;;7.50;90.90;;;;;;4955238;28;20773;-70
2022/04/29 00:36:30;;;;;;;18.33;7.05;;;7.50;91.00;;;;;;4938309;28;20675;-70
2022/04/29 00:38:57;;;;;;;10.40;6.20;;;7.40;90.60;;;;;;4934740;28;20791;-70
2022/04/29 00:41:23;;;;;;;9.63;5.70;;;7.40;90.20;;;;;;4955212;28;20041;-70
2022/04/29 00:43:59;;;;;;;14.07;6.88;;;7.30;90.20;;;;;;4956426;28;20074;-70
2022/04/29 00:46:25;;;;;;;11.43;6.13;;;7.30;90.00;;;;;;4942961;28;20585;-70
2022/04/29 00:48:51;;;;;;;11.27;6.60;;;7.20;90.10;;;;;;4954615;28;20050;-70
2022/04/29 00:51:17;;;;;;;9.43;5.60;;;7.10;90.10;;;;;;4956023;28;20093;-70
2022/04/29 00:53:43;;;;;;;11.60;5.82;;;7.10;90.00;;;;;;4938156;28;20770;-70
2022/04/29 00:56:11;;;;;;;10.02;5.63;;;7.00;89.90;;;;;;4935065;28;20027;-70
2022/04/29 00:58:44;;;;;;;12.77;6.32;;;6.90;89.90;;;;;;4953403;28;20030;-70
2022/04/29 01:01:11;;;;;;;11.45;5.70;;;6.90;89.80;;;;;;4958610;28;20049;-70
2022/04/29 01:03:38;;;;;;;11.40;6.38;;;6.90;90.30;;;;;;4958628;28;20065;-69
2022/04/29 01:06:04;;;;;;;10.35;5.85;;;6.80;90.10;;;;;;4937524;28;20110;-69
2022/04/29 01:08:30;;;;;;;13.07;5.43;;;6.70;90.20;;;;;;4954890;28;20529;-69
2022/04/29 01:10:56;;;;;;;8.30;5.47;;;6.70;90.20;;;;;;4952651;28;20031;-73
2022/04/29 01:13:22;;;;;;;8.50;5.28;;;6.70;90.10;;;;;;4936908;28;20039;-70
2022/04/29 01:15:50;;;;;;;9.63;5.78;;;6.60;90.00;;;;;;4942618;28;20121;-70
2022/04/29 01:18:17;;;;;;;9.70;5.75;;;6.50;90.10;;;;;;4954066;28;20026;-70
2022/04/29 01:20:43;;;;;;;13.95;5.65;;;6.50;90.20;;;;;;4955470;28;20030;-69
2022/04/29 01:23:12;;;;;;;12.35;5.53;;;6.40;90.20;;;;;;4938304;28;20034;-70
2022/04/29 01:25:40;;;;;;;8.60;4.80;;;6.40;90.30;;;;;;4953129;28;20022;-69
2022/04/29 01:28:06;;;;;;;10.20;5.10;;;6.30;90.40;;;;;;4955411;28;20392;-70
2022/04/29 01:30:35;;;;;;;12.55;5.75;;;6.30;90.50;;;;;;4938537;28;20883;-70
2022/04/29 01:33:01;;;;;;;9.32;5.03;;;6.30;90.60;;;;;;4952991;28;20042;-70
2022/04/29 01:35:27;;;;;;;11.00;5.38;;;6.20;90.60;;;;;;4936578;28;20033;-70
2022/04/29 01:37:53;;;;;;;10.18;5.32;;;6.20;90.60;;;;;;4934131;28;20476;-70
2022/04/29 01:40:20;;;;;;;9.90;5.38;;;6.10;90.80;;;;;;4927667;28;20105;-70
2022/04/29 01:42:47;;;;;;;9.95;5.53;;;6.10;90.80;;;;;;4953003;28;20026;-72
2022/04/29 01:45:13;;;;;;;7.68;4.80;;;6.00;90.70;;;;;;4939812;28;20047;-68
2022/04/29 01:47:49;;;;;;;;;;;6.00;90.80;;;;;;4942570;28;20506;-68
2022/04/29 01:50:53;;;;;;;5.78;4.25;;;6.00;90.90;;;;;;4900067;29;20447;-69
2022/04/29 01:53:20;;;;;;;8.68;5.22;;;6.00;90.90;;;;;;4900910;29;20036;-68
2022/04/29 01:55:47;;;;;;;7.82;5.05;;;5.90;91.00;;;;;;4927700;28;20041;-69
2022/04/29 01:58:13;;;;;;;8.13;4.80;;;5.90;91.00;;;;;;4939466;28;20474;-68
2022/04/29 02:00:39;;;;;;;9.85;4.80;;;5.90;91.10;;;;;;4943565;28;20027;-69
2022/04/29 02:03:05;;;;;;;7.38;5.07;;;5.90;91.20;;;;;;4942140;28;20046;-67
2022/04/29 02:05:31;;;;;;;8.65;5.65;;;5.80;91.20;;;;;;4956662;28;20774;-68
2022/04/29 02:08:00;;;;;;;7.20;5.00;;;5.80;91.20;;;;;;4953736;28;20035;-69
2022/04/29 02:10:27;;;;;;;8.68;5.28;;;5.80;91.40;;;;;;4936470;28;20039;-69
2022/04/29 02:12:53;;;;;;;12.43;5.82;;;5.90;91.70;;;;;;4936973;28;20031;-70
2022/04/29 02:15:25;;;;;;;10.95;5.68;;;5.90;92.00;;;;;;4953153;28;20074;-72
2022/04/29 02:17:51;;;;;;;10.35;5.43;;;5.90;92.20;;;;;;4935309;28;20514;-69
2022/04/29 02:20:17;;;;;;;10.35;5.50;;;6.00;92.40;;;;;;4939553;28;20054;-69
2022/04/29 02:22:43;;;;;;;11.05;5.82;;;6.00;92.50;;;;;;4936329;28;20026;-69
2022/04/29 02:25:10;;;;;;;8.18;4.97;;;6.00;92.60;;;;;;4939007;28;20039;-69
2022/04/29 02:27:39;;;;;;;15.98;5.90;;;6.00;92.50;;;;;;4937675;28;20021;-68
2022/04/29 02:30:05;;;;;;;8.20;5.55;;;6.00;92.30;;;;;;4941736;28;20038;-69
2022/04/29 02:32:32;;;;;;;11.60;5.47;;;6.00;92.30;;;;;;4942173;28;20525;-73
2022/04/29 02:34:58;;;;;;;11.00;5.07;;;6.10;92.50;;;;;;4942802;28;20034;-72
2022/04/29 02:37:27;;;;;;;8.30;5.53;;;6.00;91.90;;;;;;4942172;28;20082;-71
2022/04/29 02:39:54;;;;;;;9.57;5.40;;;6.00;91.90;;;;;;4934000;28;20031;-71
2022/04/29 02:42:20;;;;;;;9.10;6.22;;;6.00;92.00;;;;;;4944005;28;20697;-71
2022/04/29 02:44:46;;;;;;;8.60;4.85;;;6.00;92.10;;;;;;4942997;28;20109;-67
2022/04/29 02:47:12;;;;;;;12.57;5.82;;;6.00;92.30;;;;;;4936138;28;20089;-69
2022/04/29 02:49:40;;;;;;;8.43;5.28;;;6.00;92.50;;;;;;4927771;28;20043;-69
2022/04/29 02:52:08;;;;;;;8.82;4.90;;;6.10;92.60;;;;;;4932833;28;20502;-69
2022/04/29 02:54:34;;;;;;;7.60;4.72;;;6.10;92.50;;;;;;4933571;28;20023;-69
2022/04/29 02:57:01;;;;;;;7.82;4.75;;;6.00;92.60;;;;;;4933568;28;20027;-70
2022/04/29 02:59:36;;;;;;;13.15;5.63;;;6.10;92.40;;;;;;4930064;28;20114;-69
2022/04/29 03:02:03;;;;;;;9.60;5.07;;;6.10;92.30;;;;;;4955476;28;20673;-70
2022/04/29 03:04:29;;;;;;;9.02;5.00;;;6.00;92.30;;;;;;4942274;28;20118;-70
2022/04/29 03:06:55;;;;;;;12.75;5.53;;;6.10;92.30;;;;;;4957656;28;20743;-69
2022/04/29 03:09:21;;;;;;;8.10;5.00;;;6.10;92.40;;;;;;4959332;28;20420;-69
2022/04/29 03:11:50;;;;;;;9.10;5.65;;;6.00;92.30;;;;;;4941162;28;20134;-68
2022/04/29 03:14:17;;;;;;;9.82;5.55;;;6.00;92.20;;;;;;4940568;28;20097;-68
2022/04/29 03:16:43;;;;;;;8.13;5.10;;;6.00;92.00;;;;;;4940316;28;20522;-70
2022/04/29 03:19:10;;;;;;;7.60;4.85;;;5.90;92.00;;;;;;4960321;28;20110;-69
2022/04/29 03:21:36;;;;;;;9.25;4.53;;;5.90;92.00;;;;;;4959855;28;20481;-71
2022/04/29 03:24:03;;;;;;;9.90;5.25;;;5.90;92.10;;;;;;4940437;28;20070;-68
2022/04/29 03:26:30;;;;;;;8.23;5.18;;;5.80;92.30;;;;;;4942208;28;20026;-69
2022/04/29 03:28:57;;;;;;;11.48;5.47;;;5.80;92.30;;;;;;4937055;28;20058;-69
2022/04/29 03:31:24;;;;;;;8.75;4.95;;;5.80;92.30;;;;;;4942951;28;20042;-69
2022/04/29 03:34:14;;;;;;;10.10;5.78;;;5.70;92.20;;;;;;4936011;28;20118;-67
2022/04/29 03:36:40;;;;;;;8.90;5.30;;;5.80;92.00;;;;;;4954600;28;20688;-68
2022/04/29 03:39:06;;;;;;;10.40;5.75;;;5.70;92.10;;;;;;4962411;28;20038;-68
2022/04/29 03:41:33;;;;;;;10.45;5.60;;;5.70;91.90;;;;;;4943494;28;20027;-68
2022/04/29 03:44:01;;;;;;;9.88;5.03;;;5.80;91.70;;;;;;4944817;28;20035;-69
2022/04/29 03:46:34;;;;;;;10.23;6.20;;;5.70;91.30;;;;;;4943770;28;20047;-68
2022/04/29 03:49:35;;;;;;;11.32;6.25;;;5.70;91.00;;;;;;4944769;28;20035;-68
2022/04/29 03:52:21;;;;;;;17.38;6.93;;;5.60;90.70;;;;;;4960288;28;20038;-69
2022/04/29 03:54:51;;;;;;;18.48;7.65;;;5.60;90.60;;;;;;4937405;28;20030;-68
2022/04/29 03:57:17;;;;;;;15.75;7.50;;;5.60;90.50;;;;;;4945879;28;20030;-68
2022/04/29 03:59:43;;;;;;;13.95;6.70;;;5.60;90.40;;;;;;4945801;28;20530;-68
2022/04/29 04:02:09;;;;;;;19.38;6.35;;;5.60;90.60;;;;;;4945517;28;20149;-68
2022/04/29 04:04:36;;;;;;;11.15;6.88;;;5.70;90.90;;;;;;4957056;28;20027;-68
2022/04/29 04:07:03;;;;;;;11.75;5.88;;;5.70;90.90;;;;;;4941766;28;20042;-69
2022/04/29 04:09:39;;;;;;;13.50;6.72;;;5.80;90.80;;;;;;4944882;28;20035;-68
2022/04/29 04:12:07;;;;;;;11.82;5.63;;;5.90;90.90;;;;;;4944260;28;20037;-68
2022/04/29 04:15:01;;;;;;;12.23;6.10;;;5.90;90.90;;;;;;4954047;28;20027;-68
2022/04/29 04:17:29;;;;;;;10.80;6.85;;;6.00;91.00;;;;;;4942745;28;20439;-69
2022/04/29 04:19:54;;;;;;;12.63;6.15;;;6.10;91.10;;;;;;4945722;28;20042;-68
2022/04/29 04:22:20;;;;;;;9.82;5.97;;;6.20;91.00;;;;;;4944854;28;20031;-68
2022/04/29 04:24:46;;;;;;;13.60;6.32;;;6.30;90.80;;;;;;4945602;28;20030;-69
2022/04/29 04:27:12;;;;;;;12.70;6.05;;;6.40;90.50;;;;;;4940588;28;20027;-68
2022/04/29 04:29:39;;;;;;;11.20;6.00;;;6.50;90.10;;;;;;4941578;28;20037;-68
2022/04/29 04:32:05;;;;;;;9.27;5.32;;;6.60;89.60;;;;;;4943060;28;20043;-68
2022/04/29 04:37:20;;;;;;;11.30;5.45;;;6.90;89.00;;;;;;4945698;28;20085;-68
2022/04/29 04:39:48;;;;;;;11.55;5.07;;;7.00;88.60;;;;;;4936882;28;20438;-68
2022/04/29 04:42:18;;;;;;;10.77;5.40;;;7.20;88.70;;;;;;4947226;28;20037;-69
2022/04/29 04:44:48;;;;;;;10.65;5.63;;;7.40;88.70;;;;;;4943817;28;20050;-68
2022/04/29 04:47:16;;;;;;;12.27;5.43;;;7.60;88.40;;;;;;4943274;28;20031;-69
2022/04/29 04:50:01;;;;;;;10.23;5.25;;;7.80;87.90;;;;;;4957510;28;20089;-68
2022/04/29 04:52:29;;;;;;;13.77;5.80;;;8.00;87.40;;;;;;4944636;28;20037;-69
2022/04/29 04:54:55;;;;;;;8.63;5.00;;;8.10;86.90;;;;;;4941488;28;20031;-68
2022/04/29 04:57:24;;;;;;;7.45;5.18;;;8.20;86.30;;;;;;4944743;28;20437;-68
2022/04/29 04:59:50;;;;;;;9.10;4.75;;;8.30;85.80;;;;;;4942827;28;20118;-69
2022/04/29 05:02:16;;;;;;;9.75;4.82;;;8.40;85.70;;;;;;4944530;28;20027;-69
2022/04/29 05:04:48;;;;;;;8.95;4.78;;;8.50;85.60;;;;;;4958322;28;20042;-68
2022/04/29 05:07:43;;;;;;;9.48;5.07;;;8.50;85.70;;;;;;4936639;28;20583;-69
2022/04/29 05:10:12;;;;;;;6.72;4.43;;;8.60;85.90;;;;;;4941016;28;20122;-69
2022/04/29 05:12:43;;;;;;;11.50;5.60;;;8.70;85.50;;;;;;4945452;28;20438;-68
2022/04/29 05:15:16;;;;;;;9.32;5.00;;;8.90;84.40;;;;;;4942381;28;20035;-68
2022/04/29 05:17:43;;;;;;;13.25;5.50;;;9.10;82.80;;;;;;4942841;28;20586;-68
2022/04/29 05:20:26;;;;;;;7.55;4.80;;;9.40;82.00;;;;;;4937791;28;20023;-68
2022/04/29 05:22:52;;;;;;;9.57;5.18;;;9.60;81.10;;;;;;4943792;28;20206;-68
2022/04/29 05:25:18;;;;;;;8.43;4.70;;;9.90;81.10;;;;;;4940198;28;20041;-69
2022/04/29 05:28:03;;;;;;;9.27;4.65;;;10.20;80.20;;;;;;4958874;28;20046;-68
2022/04/29 05:30:49;;;;;;;9.15;4.63;;;10.60;78.50;;;;;;4957701;28;20042;-68
2022/04/29 05:33:34;;;;;;;8.60;4.53;;;11.30;76.60;;;;;;4958059;28;20085;-68
2022/04/29 05:36:29;;;;;;;8.45;4.57;;;12.40;72.90;;;;;;4870604;28;20064;-69
2022/04/29 05:42:15;;;;;;;10.27;4.18;;;14.40;65.80;;;;;;4944365;28;20023;-68
2022/04/29 05:44:41;;;;;;;9.77;5.50;;;15.00;63.30;;;;;;4955240;28;20587;-69
2022/04/29 05:47:07;;;;;;;6.63;4.65;;;15.30;61.20;;;;;;4959603;28;20138;-69
2022/04/29 05:49:34;;;;;;;11.43;4.47;;;15.80;60.20;;;;;;4941330;28;20109;-69
2022/04/29 05:52:01;;;;;;;9.02;5.30;;;16.70;57.50;;;;;;4941442;28;20082;-69
2022/04/29 05:54:27;;;;;;;10.50;4.85;;;17.70;55.00;;;;;;4935956;28;20931;-69
2022/04/29 05:56:54;;;;;;;6.97;4.65;;;18.20;53.10;;;;;;4943826;28;20117;-69
2022/04/29 05:59:20;;;;;;;7.75;4.82;;;18.10;53.80;;;;;;4941536;28;20404;-69
2022/04/29 06:02:06;;;;;;;8.77;4.78;;;18.60;52.70;;;;;;4942443;28;20131;-69
2022/04/29 06:04:55;;;;;;;10.90;5.88;;;19.30;51.00;;;;;;4942606;28;20031;-69
2022/04/29 06:07:21;;;;;;;8.60;5.22;;;19.80;48.70;;;;;;4957403;28;20038;-69
2022/04/29 06:09:46;;;;;;;9.60;5.47;;;20.10;48.00;;;;;;4943368;28;20539;-69
2022/04/29 06:12:13;;;;;;;11.63;5.28;;;20.50;46.40;;;;;;4949732;28;20849;-69
2022/04/29 06:14:43;;;;;;;10.32;5.20;;;21.40;45.00;;;;;;4936023;28;20170;-69
2022/04/29 06:17:28;;;;;;;8.43;4.55;;;22.40;42.60;;;;;;4959950;28;20765;-69
2022/04/29 06:20:12;;;;;;;13.77;4.55;;;22.40;42.20;;;;;;4954796;28;20065;-69
2022/04/29 06:22:47;;;;;;;7.30;4.65;;;22.50;42.10;;;;;;4956479;28;20094;-69
2022/04/29 06:25:23;;;;;;;7.60;4.53;;;23.20;40.80;;;;;;4945317;28;20026;-69
2022/04/29 06:27:49;;;;;;;8.57;4.13;;;23.40;39.40;;;;;;4942527;28;20764;-70
2022/04/29 06:30:15;;;;;;;16.20;4.15;;;23.30;38.50;;;;;;4936762;28;20062;-70
2022/04/29 06:32:56;;;;;;;7.63;4.03;;;22.90;38.50;;;;;;4925464;28;20123;-69
2022/04/29 06:35:27;;;;;;;11.93;4.63;;;22.40;39.40;;;;;;4942840;28;20050;-70
2022/04/29 06:37:54;;;;;;;8.20;4.20;;;21.90;39.60;;;;;;4942522;28;20022;-69
2022/04/29 06:40:40;;;;;;;6.10;3.78;;;21.60;40.20;;;;;;4946192;28;20101;-70
2022/04/29 06:43:05;;;;;;;5.43;3.55;;;21.60;40.20;;;;;;4941010;28;20031;-69
2022/04/29 06:45:50;;;;;;;7.65;3.72;;;21.50;39.80;;;;;;4956867;28;20100;-70
2022/04/29 06:48:34;;;;;;;8.80;3.97;;;21.10;40.50;;;;;;4954445;28;20117;-69
2022/04/29 06:51:38;;;;;;;5.55;3.15;;;20.80;40.90;;;;;;4958137;28;20590;-69
2022/04/29 06:54:12;;;;;;;9.85;3.67;;;20.40;41.30;;;;;;4941966;28;20419;-70
2022/04/29 06:56:38;;;;;;;11.27;3.92;;;20.00;41.30;;;;;;4930610;28;20030;-69
2022/04/29 06:59:04;;;;;;;5.97;3.67;;;19.70;42.30;;;;;;4933448;28;20022;-69
2022/04/29 07:01:32;;;;;;;9.85;4.20;;;19.40;43.00;;;;;;4942452;28;20113;-68
2022/04/29 07:03:58;;;;;;;5.97;3.50;;;19.10;43.60;;;;;;4942413;28;20078;-70
2022/04/29 07:06:24;;;;;;;6.72;3.63;;;19.00;44.00;;;;;;4939109;28;20030;-69
2022/04/29 07:08:52;;;;;;;5.28;3.40;;;19.30;44.40;;;;;;4937315;28;20038;-70
2022/04/29 07:11:36;;;;;;;8.18;3.20;;;20.30;43.00;;;;;;4933006;28;20045;-69
2022/04/29 07:14:08;;;;;;;10.32;3.88;;;21.60;40.30;;;;;;4941421;28;20145;-69
2022/04/29 07:17:08;;;;;;;7.95;3.40;;;22.30;38.30;;;;;;4945761;28;20074;-70
2022/04/29 07:19:39;;;;;;;5.45;2.90;;;22.00;38.60;;;;;;4941878;28;20463;-69
2022/04/29 07:22:06;;;;;;;8.63;3.38;;;21.70;38.60;;;;;;4937175;28;20081;-70
2022/04/29 07:24:34;;;;;;;6.30;3.50;;;21.50;38.80;;;;;;4934468;28;20138;-70
2022/04/29 07:27:01;;;;;;;6.45;3.28;;;21.20;38.70;;;;;;4943385;28;20121;-70
2022/04/29 07:29:27;;;;;;;4.80;2.83;;;20.90;39.90;;;;;;4941941;28;20027;-69
2022/04/29 07:31:59;;;;;;;6.03;3.17;;;20.90;39.90;;;;;;4937264;28;20089;-70
2022/04/29 07:43:36;;;;;;;;;;;23.00;36.20;;;;;;4939633;28;20041;-70
2022/04/29 07:46:03;;;;;;;5.28;2.60;;;23.10;35.60;;;;;;4958739;28;20582;-70
2022/04/29 07:48:30;;;;;;;8.65;3.35;;;23.00;35.70;;;;;;4954980;28;20034;-70
2022/04/29 07:50:58;;;;;;;9.35;4.10;;;23.00;34.90;;;;;;4935993;28;20031;-70
2022/04/29 07:53:24;;;;;;;6.93;3.58;;;22.60;35.10;;;;;;4942497;28;20058;-70
2022/04/29 07:55:50;;;;;;;7.97;3.47;;;22.40;36.00;;;;;;4938603;28;20035;-70
2022/04/29 07:58:16;;;;;;;4.93;3.45;;;22.10;36.50;;;;;;4933142;28;20034;-70
2022/04/29 08:00:43;;;;;;;6.93;3.80;;;21.90;36.20;;;;;;4936781;28;20031;-70
2022/04/29 08:03:09;;;;;;;10.38;3.50;;;21.60;37.00;;;;;;4939445;28;20058;-69
2022/04/29 08:05:58;;;;;;;5.97;3.22;;;21.30;37.50;;;;;;4950360;28;20146;-70
2022/04/29 08:08:24;;;;;;;4.53;3.00;;;21.20;38.30;;;;;;4943100;28;20187;-70
2022/04/29 08:10:51;;;;;;;5.95;3.17;;;21.20;38.50;;;;;;4941119;28;20031;-70
2022/04/29 08:13:17;;;;;;;7.80;3.58;;;21.30;38.60;;;;;;4942453;28;20770;-70
2022/04/29 08:16:12;;;;;;;9.73;3.28;;;21.60;37.90;;;;;;4954233;28;20872;-70
2022/04/29 08:18:57;;;;;;;6.78;3.88;;;21.80;38.10;;;;;;4957416;28;20046;-69
2022/04/29 08:21:52;;;;;;;6.70;3.88;;;22.40;37.60;;;;;;4947766;28;20054;-70
2022/04/29 08:24:18;;;;;;;7.85;4.00;;;22.90;37.00;;;;;;4935423;28;20490;-69
2022/04/29 08:26:44;;;;;;;10.48;4.10;;;23.10;35.60;;;;;;4960895;28;20089;-70
2022/04/29 08:29:10;;;;;;;5.45;2.92;;;23.20;35.80;;;;;;4937635;28;20026;-70
2022/04/29 08:31:37;;;;;;;6.13;3.50;;;23.10;36.20;;;;;;4944958;28;20054;-70
2022/04/29 08:34:04;;;;;;;7.63;3.80;;;23.10;36.50;;;;;;4944799;28;20499;-70
2022/04/29 08:36:31;;;;;;;6.55;3.38;;;23.30;36.00;;;;;;4944241;28;20042;-70
2022/04/29 08:38:57;;;;;;;5.93;3.00;;;23.80;35.00;;;;;;4945168;28;20109;-69
2022/04/29 08:41:24;;;;;;;7.60;3.97;;;24.60;34.00;;;;;;4944301;28;20019;-67
2022/04/29 08:43:54;;;;;;;7.13;3.58;;;25.10;32.80;;;;;;4926249;28;20039;-69
2022/04/29 08:46:41;;;;;;;;;;;26.60;32.10;;;;;;4944944;28;20616;-69
2022/04/29 08:49:22;;;;;;;6.00;3.75;;;27.80;29.10;;;;;;4940576;28;19997;-71
2022/04/29 08:51:48;;;;;;;6.68;3.95;;;29.30;28.30;;;;;;4956156;28;20923;-68
2022/04/29 08:58:36;;;;;;;5.65;3.15;;;29.40;28.00;;;;;;4958632;28;20026;-68
2022/04/29 08:59:48;;;;;;;7.55;3.78;;;28.70;28.80;;;;;;4961505;28;20035;-70
2022/04/29 09:02:13;;;;;;;7.55;3.80;;;28.60;28.30;;;;;;4954923;28;20030;-70
2022/04/29 09:04:40;;;;;;;8.80;3.85;;;27.70;28.80;;;;;;4955450;28;20031;-70
2022/04/29 09:07:05;;;;;;;6.63;3.58;;;28.00;28.50;;;;;;4952522;28;20081;-70
2022/04/29 09:09:31;;;;;;;4.90;3.70;;;28.50;28.80;;;;;;4958861;28;20114;-70
2022/04/29 09:12:16;;;;;;;5.20;3.13;;;28.00;29.10;;;;;;4955846;28;20049;-68
2022/04/29 09:14:42;;;;;;;10.30;3.30;;;27.30;29.90;;;;;;4954158;28;20035;-69
2022/04/29 09:17:28;;;;;;;6.10;3.20;;;26.90;30.70;;;;;;4957586;28;20035;-68
2022/04/29 09:19:54;;;;;;;6.00;3.30;;;26.90;30.40;;;;;;4938473;28;20035;-67
2022/04/29 09:22:19;;;;;;;7.95;3.15;;;26.30;30.20;;;;;;4956530;28;20030;-69
2022/04/29 09:25:00;;;;;;;9.63;4.47;;;26.50;30.90;;;;;;4937162;28;20114;-70
2022/04/29 09:27:56;;;;;;;6.25;3.70;;;27.10;29.80;;;;;;4952797;28;20066;-70
2022/04/29 09:30:38;;;;;;;7.80;3.72;;;27.00;30.30;;;;;;4937329;28;20031;-70
2022/04/29 09:33:35;;;;;;;7.05;3.75;;;27.50;29.80;;;;;;4917064;28;20158;-70
2022/04/29 09:36:24;;;;;;;6.80;3.65;;;27.80;29.30;;;;;;4941127;28;20439;-70
2022/04/29 09:41:52;;;;;;;6.80;3.38;;;30.50;26.80;;;;;;4955149;28;20046;-70
2022/04/29 09:44:32;;;;;;;7.00;4.00;;;31.60;26.70;;;;;;4940443;28;20051;-73
2022/04/29 09:47:11;;;;;;;11.13;4.93;;;32.60;25.60;;;;;;4954432;28;20748;-69
2022/04/29 09:49:37;;;;;;;8.02;4.93;;;30.80;26.00;;;;;;4953738;28;20042;-68
2022/04/29 09:52:04;;;;;;;7.85;4.07;;;29.00;27.00;;;;;;4959665;28;20104;-69
2022/04/29 09:54:37;;;;;;;7.82;3.28;;;28.10;28.30;;;;;;4956678;28;20043;-69
2022/04/29 09:57:10;;;;;;;9.68;4.00;;;28.70;28.50;;;;;;4941281;28;20117;-69
2022/04/29 09:59:49;;;;;;;5.55;3.47;;;30.60;26.70;;;;;;4954819;28;20432;-70
2022/04/29 10:02:21;;;;;;;8.10;3.92;;;32.00;25.50;;;;;;4954852;28;20035;-71
2022/04/29 10:04:51;;;;;;;5.07;3.53;;;31.40;25.70;;;;;;4939282;28;20033;-72
2022/04/29 10:07:21;;;;;;;6.35;3.20;;;31.50;26.00;;;;;;4950565;28;20035;-71
2022/04/29 10:09:55;;;;;;;6.43;3.70;;;31.40;25.40;;;;;;4942659;28;20100;-71
2022/04/29 10:12:23;;;;;;;6.18;3.72;;;31.20;25.70;;;;;;4951386;28;20134;-71
2022/04/29 10:15:05;;;;;;;6.00;2.92;;;30.70;25.80;;;;;;4939231;28;20038;-70
2022/04/29 10:23:20;;;;;;;8.73;3.33;;;29.20;26.10;;;;;;4953837;28;20039;-70
2022/04/29 10:25:47;;;;;;;6.07;3.30;;;28.00;26.80;;;;;;4936116;28;20505;-70
2022/04/29 10:28:19;;;;;;;3.58;3.00;;;27.30;27.00;;;;;;4956780;28;20558;-71
2022/04/29 10:30:44;;;;;;;4.72;2.75;;;26.60;27.30;;;;;;4954376;28;20038;-70
2022/04/29 10:33:25;;;;;;;6.60;2.78;;;26.70;27.00;;;;;;4937069;28;20050;-70
2022/04/29 10:35:53;;;;;;;4.03;2.45;;;27.40;26.90;;;;;;4934961;28;20451;-70
2022/04/29 10:38:26;;;;;;;5.75;2.55;;;27.10;28.00;;;;;;4939494;28;20698;-70
2022/04/29 10:41:25;;;;;;;4.78;2.42;;;27.00;27.90;;;;;;4954706;28;20053;-71
2022/04/29 10:43:51;;;;;;;4.38;2.60;;;26.70;27.50;;;;;;4954660;28;20030;-70
2022/04/29 10:46:36;;;;;;;2.58;2.15;;;28.40;26.90;;;;;;4954180;28;20039;-70
2022/04/29 10:49:28;;;;;;;3.33;2.38;;;30.10;25.40;;;;;;4958366;28;20149;-70
2022/04/29 10:52:28;;;;;;;5.10;2.47;;;29.50;25.30;;;;;;4950474;28;20035;-69
2022/04/29 10:55:24;;;;;;;7.53;3.10;;;29.50;25.30;;;;;;4956286;28;20034;-70
2022/04/29 10:57:57;;;;;;;7.13;2.85;;;30.80;24.70;;;;;;4955646;28;20027;-68
2022/04/29 11:00:28;;;;;;;4.38;2.70;;;32.30;24.30;;;;;;4940344;28;20681;-68
2022/04/29 11:03:36;;;;;;;7.57;3.40;;;32.80;24.30;;;;;;4939847;28;20033;-69
2022/04/29 11:06:09;;;;;;;4.68;2.65;;;31.40;24.20;;;;;;4952543;28;20027;-68
2022/04/29 11:08:36;;;;;;;10.07;3.63;;;28.50;27.30;;;;;;4943677;28;20050;-69
2022/04/29 11:11:01;;;;;;;6.97;3.42;;;26.60;27.70;;;;;;4955966;28;20030;-67
2022/04/29 11:13:47;;;;;;;7.03;2.85;;;24.70;29.80;;;;;;4952667;28;20706;-67
2022/04/29 11:16:47;;;;;;;;;;;23.10;31.20;;;;;;4954726;28;20113;-69
2022/04/29 11:19:27;;;;;;;10.52;2.60;;;22.70;32.60;;;;;;4956287;28;19910;-70
2022/04/29 11:24:54;;;;;;;4.60;2.00;;;22.50;31.00;;;;;;4933792;28;20081;-71
2022/04/29 11:27:42;;;;;;;7.72;2.22;;;22.20;29.30;;;;;;4951415;28;20059;-69
2022/04/29 11:30:14;;;;;;;6.28;2.30;;;22.10;30.20;;;;;;4940227;28;20081;-69
2022/04/29 11:33:02;;;;;;;4.32;2.03;;;22.00;30.70;;;;;;4956745;28;20046;-70
2022/04/29 11:35:28;;;;;;;4.30;2.25;;;21.90;30.50;;;;;;4953245;28;20034;-69
2022/04/29 11:37:53;;;;;;;3.50;2.05;;;21.70;30.60;;;;;;4955450;28;20031;-71
2022/04/29 11:40:19;;;;;;;3.38;1.90;;;21.60;32.40;;;;;;4948527;28;20034;-68
2022/04/29 11:42:51;;;;;;;3.65;2.20;;;21.70;31.60;;;;;;4959195;28;20100;-69
2022/04/29 11:45:20;;;;;;;4.78;2.45;;;21.70;33.40;;;;;;4957220;28;20554;-69
2022/04/29 11:47:49;;;;;;;5.93;2.40;;;21.60;33.50;;;;;;4960761;28;20118;-69
2022/04/29 11:50:15;;;;;;;3.38;2.22;;;21.70;35.10;;;;;;4957271;28;20070;-68
2022/04/29 11:52:40;;;;;;;3.78;2.38;;;21.90;35.10;;;;;;4950737;28;20058;-69
2022/04/29 11:55:14;;;;;;;3.70;2.33;;;21.90;33.50;;;;;;4954360;28;20033;-68
2022/04/29 11:57:45;;;;;;;4.75;2.65;;;21.60;33.10;;;;;;4951397;28;20837;-69
2022/04/29 12:00:25;;;;;;;5.40;2.45;;;21.30;32.90;;;;;;4956912;28;20093;-69
2022/04/29 12:02:51;;;;;;;4.53;2.67;;;21.20;33.50;;;;;;4958906;28;20118;-69
2022/04/29 12:05:25;;;;;;;6.75;2.97;;;20.90;34.10;;;;;;4941251;28;20030;-69
2022/04/29 12:07:52;;;;;;;6.45;3.10;;;20.70;34.50;;;;;;4961490;28;20039;-69
2022/04/29 12:10:29;;;;;;;7.03;2.45;;;20.80;35.60;;;;;;4958736;28;20521;-69
2022/04/29 12:12:55;;;;;;;7.50;2.50;;;20.80;34.70;;;;;;4954268;28;20043;-69
2022/04/29 12:15:26;;;;;;;2.17;1.90;;;20.90;34.10;;;;;;4960325;28;20031;-69
2022/04/29 12:17:59;;;;;;;1.90;1.60;;;20.90;35.30;;;;;;4959049;28;20034;-69
2022/04/29 12:20:26;;;;;;;7.70;2.50;;;21.10;34.80;;;;;;4957642;28;20027;-69
2022/04/29 12:22:52;;;;;;;5.47;2.10;;;21.40;34.30;;;;;;4959255;28;20134;-69
2022/04/29 12:25:21;;;;;;;3.88;1.80;;;21.50;33.10;;;;;;4958732;28;20045;-69
2022/04/29 12:28:05;;;;;;;2.88;1.80;;;21.50;34.10;;;;;;4958453;28;20561;-69
2022/04/29 12:36:19;;;;;;;4.80;1.77;;;21.50;32.10;;;;;;4957275;28;20435;-69
2022/04/29 12:38:45;;;;;;;3.22;2.08;;;21.60;33.00;;;;;;4956314;28;20112;-69
2022/04/29 12:41:24;;;;;;;7.10;2.13;;;21.50;32.90;;;;;;4960842;28;20046;-69
2022/04/29 12:44:05;;;;;;;4.50;2.20;;;21.50;34.20;;;;;;4958640;28;20042;-69
2022/04/29 12:46:31;;;;;;;4.38;2.28;;;21.70;34.60;;;;;;4944320;28;20023;-69
2022/04/29 12:48:57;;;;;;;3.55;2.20;;;21.80;32.40;;;;;;4958613;28;20066;-69
2022/04/29 12:51:25;;;;;;;6.78;2.22;;;21.70;33.20;;;;;;4960894;28;20177;-69
2022/04/29 12:53:52;;;;;;;5.55;2.55;;;21.70;33.50;;;;;;4958134;28;20041;-69
2022/04/29 12:56:29;;;;;;;2.58;1.92;;;21.50;33.50;;;;;;4958968;28;20086;-69
2022/04/29 12:58:57;;;;;;;2.47;1.70;;;21.60;34.40;;;;;;4953203;28;20066;-69
2022/04/29 13:01:23;;;;;;;6.65;1.95;;;21.90;33.30;;;;;;4961215;28;20774;-69
2022/04/29 13:03:55;;;;;;;6.05;1.95;;;22.20;34.10;;;;;;4950440;28;20422;-69
2022/04/29 13:06:29;;;;;;;5.13;2.15;;;22.50;33.00;;;;;;4957193;28;20038;-69
2022/04/29 13:08:57;;;;;;;3.55;2.03;;;22.50;32.80;;;;;;4956106;28;20039;-69
2022/04/29 13:11:23;;;;;;;2.53;1.70;;;22.70;33.20;;;;;;4962329;28;20042;-69
2022/04/29 13:13:51;;;;;;;4.15;2.50;;;22.70;32.50;;;;;;4955731;28;20035;-68
2022/04/29 13:16:19;;;;;;;5.93;2.13;;;22.80;32.60;;;;;;4944336;28;20023;-69
2022/04/29 13:18:46;;;;;;;4.60;1.85;;;22.80;32.30;;;;;;4945136;28;20035;-70
2022/04/29 13:21:14;;;;;;;3.13;1.80;;;22.70;31.60;;;;;;4943906;28;20027;-69
2022/04/29 13:23:44;;;;;;;4.15;1.90;;;22.60;32.10;;;;;;4945053;28;20022;-69
2022/04/29 13:26:32;;;;;;;2.70;1.80;;;22.50;33.00;;;;;;4952851;28;20062;-69
2022/04/29 13:28:58;;;;;;;4.68;1.85;;;22.60;32.80;;;;;;4937839;28;20182;-71
2022/04/29 13:31:24;;;;;;;2.53;1.65;;;22.70;32.80;;;;;;4944857;28;20031;-71
2022/04/29 13:33:49;;;;;;;3.42;1.95;;;22.80;32.30;;;;;;4954365;28;20513;-70
2022/04/29 13:36:16;;;;;;;3.65;2.05;;;23.00;31.90;;;;;;4958812;28;20795;-70
2022/04/29 13:38:42;;;;;;;5.22;2.30;;;23.10;32.10;;;;;;4959319;28;20033;-73
2022/04/29 13:41:09;;;;;;;3.65;2.30;;;23.10;32.10;;;;;;4939893;28;20446;-73
2022/04/29 13:43:35;;;;;;;2.78;1.60;;;22.90;31.80;;;;;;4954353;28;20109;-72